createdAt,value
2017-11-27T00:01:56.110Z,1.30
2017-11-27T00:04:24.251Z,1.40
2017-11-27T00:06:52.378Z,1.30
2017-11-27T00:09:20.499Z,1.30
2017-11-27T00:11:48.625Z,1.40
2017-11-27T00:14:16.740Z,1.40
2017-11-27T00:16:44.863Z,1.40
2017-11-27T00:19:12.987Z,1.40
2017-11-27T00:21:41.109Z,1.40
2017-11-27T00:24:09.223Z,1.40
2017-11-27T00:26:37.337Z,1.40
2017-11-27T00:29:05.480Z,1.40
2017-11-27T00:31:33.588Z,1.40
2017-11-27T00:34:01.711Z,1.40
2017-11-27T00:36:29.854Z,1.40
2017-11-27T00:38:57.961Z,1.40
2017-11-27T00:41:26.074Z,1.40
2017-11-27T00:43:54.202Z,1.30
2017-11-27T00:46:22.374Z,1.30
2017-11-27T00:48:50.500Z,1.30
2017-11-27T00:51:18.626Z,1.30
2017-11-27T00:53:46.758Z,1.30
2017-11-27T00:56:26.699Z,1.30
2017-11-27T00:58:55.137Z,1.30
2017-11-27T01:01:23.273Z,1.30
2017-11-27T01:03:52.191Z,1.40
2017-11-27T01:06:20.883Z,1.30
2017-11-27T01:08:49.015Z,1.40
2017-11-27T01:11:17.115Z,1.40
2017-11-27T01:13:45.232Z,1.30
2017-11-27T01:16:13.341Z,1.10
2017-11-27T01:18:42.227Z,0.90
2017-11-27T01:21:11.104Z,0.80
2017-11-27T01:23:39.241Z,0.80
2017-11-27T01:26:07.387Z,0.80
2017-11-27T01:28:35.503Z,0.80
2017-11-27T01:31:03.622Z,0.70
2017-11-27T01:33:32.531Z,0.70
2017-11-27T01:36:00.709Z,0.70
2017-11-27T01:38:28.810Z,0.70
2017-11-27T01:40:56.924Z,0.70
2017-11-27T01:43:25.818Z,0.70
2017-11-27T01:45:53.959Z,0.70
2017-11-27T01:48:22.086Z,0.70
2017-11-27T01:50:50.206Z,0.70
2017-11-27T01:53:18.326Z,0.70
2017-11-27T01:55:46.439Z,0.80
2017-11-27T01:58:14.565Z,0.80
2017-11-27T02:00:42.680Z,0.80
2017-11-27T02:03:10.819Z,0.80
2017-11-27T02:05:38.915Z,0.80
2017-11-27T02:08:07.046Z,0.80
2017-11-27T02:10:35.914Z,0.80
2017-11-27T02:13:04.052Z,0.80
2017-11-27T02:15:32.162Z,0.80
2017-11-27T02:18:00.316Z,0.80
2017-11-27T02:20:28.397Z,0.80
2017-11-27T02:22:56.529Z,0.80
2017-11-27T02:25:24.651Z,0.80
2017-11-27T02:27:52.801Z,0.80
2017-11-27T02:30:22.099Z,0.90
2017-11-27T02:32:50.629Z,0.90
2017-11-27T02:35:19.547Z,0.80
2017-11-27T02:37:47.637Z,0.80
2017-11-27T02:40:15.766Z,0.80
2017-11-27T02:42:44.634Z,0.80
2017-11-27T02:45:12.764Z,0.80
2017-11-27T02:47:40.979Z,0.80
2017-11-27T02:50:09.111Z,0.80
2017-11-27T02:52:37.217Z,0.80
2017-11-27T02:55:05.362Z,0.80
2017-11-27T02:57:33.466Z,0.80
2017-11-27T03:00:01.605Z,0.90
2017-11-27T03:02:29.709Z,0.90
2017-11-27T03:04:57.850Z,0.80
2017-11-27T03:07:25.957Z,0.90
2017-11-27T03:09:54.081Z,0.90
2017-11-27T03:12:22.198Z,0.90
2017-11-27T03:14:50.324Z,0.90
2017-11-27T03:17:18.444Z,1.00
2017-11-27T03:19:46.578Z,1.00
2017-11-27T03:22:14.681Z,0.90
2017-11-27T03:24:42.830Z,1.00
2017-11-27T03:27:11.698Z,1.00
2017-11-27T03:29:40.597Z,1.00
2017-11-27T03:32:08.720Z,0.90
2017-11-27T03:34:36.839Z,1.00
2017-11-27T03:37:05.715Z,0.90
2017-11-27T03:39:34.604Z,1.00
2017-11-27T03:42:02.718Z,1.00
2017-11-27T03:44:30.849Z,1.00
2017-11-27T03:46:58.970Z,1.00
2017-11-27T03:49:27.099Z,1.00
2017-11-27T03:51:55.984Z,1.00
2017-11-27T03:54:24.124Z,1.00
2017-11-27T03:56:52.247Z,1.00
2017-11-27T03:59:21.132Z,1.00
2017-11-27T04:01:50.040Z,1.00
2017-11-27T04:04:19.054Z,1.00
2017-11-27T04:06:47.910Z,1.00
2017-11-27T04:09:16.799Z,1.00
2017-11-27T04:11:45.795Z,1.00
2017-11-27T04:14:14.687Z,1.00
2017-11-27T04:16:42.808Z,1.00
2017-11-27T04:19:11.995Z,1.00
2017-11-27T04:21:40.122Z,0.90
2017-11-27T04:24:08.257Z,0.90
2017-11-27T04:26:36.376Z,0.90
2017-11-27T04:29:04.590Z,0.90
2017-11-27T04:31:33.455Z,0.90
2017-11-27T04:34:02.341Z,0.90
2017-11-27T04:36:31.328Z,0.90
2017-11-27T04:39:00.207Z,0.90
2017-11-27T04:41:28.330Z,0.90
2017-11-27T04:43:56.453Z,0.90
2017-11-27T04:46:24.574Z,0.90
2017-11-27T04:48:52.687Z,0.90
2017-11-27T04:51:20.805Z,0.90
2017-11-27T04:53:48.919Z,0.90
2017-11-27T04:56:17.059Z,0.90
2017-11-27T04:58:45.927Z,0.90
2017-11-27T05:01:14.823Z,1.00
2017-11-27T05:03:43.716Z,1.00
2017-11-27T05:06:12.607Z,1.00
2017-11-27T05:08:41.483Z,1.00
2017-11-27T05:11:09.593Z,1.00
2017-11-27T05:13:37.720Z,1.00
2017-11-27T05:16:05.843Z,1.00
2017-11-27T05:18:33.957Z,1.00
2017-11-27T05:21:02.079Z,1.00
2017-11-27T05:23:30.200Z,0.90
2017-11-27T05:25:58.312Z,1.00
2017-11-27T05:28:26.462Z,0.90
2017-11-27T05:30:54.567Z,0.90
2017-11-27T05:33:22.686Z,0.90
2017-11-27T05:35:50.810Z,0.90
2017-11-27T05:38:18.934Z,0.90
2017-11-27T05:40:47.062Z,0.90
2017-11-27T05:43:15.181Z,0.90
2017-11-27T05:45:43.315Z,0.90
2017-11-27T05:48:11.422Z,0.90
2017-11-27T05:50:39.597Z,0.90
2017-11-27T05:53:07.717Z,0.90
2017-11-27T05:55:36.611Z,0.80
2017-11-27T05:58:05.488Z,0.70
2017-11-27T06:00:34.369Z,0.70
2017-11-27T06:03:02.504Z,0.70
2017-11-27T06:05:30.605Z,0.70
2017-11-27T06:07:58.729Z,0.60
2017-11-27T06:10:26.858Z,0.60
2017-11-27T06:12:54.981Z,0.60
2017-11-27T06:15:23.088Z,0.50
2017-11-27T06:17:51.207Z,0.50
2017-11-27T06:20:19.325Z,0.50
2017-11-27T06:22:47.454Z,0.40
2017-11-27T06:25:15.567Z,0.50
2017-11-27T06:27:43.717Z,0.50
2017-11-27T06:30:11.823Z,0.40
2017-11-27T06:32:39.967Z,0.50
2017-11-27T06:35:08.062Z,0.50
2017-11-27T06:37:36.189Z,0.60
2017-11-27T06:40:04.321Z,0.60
2017-11-27T06:42:32.440Z,0.60
2017-11-27T06:45:00.558Z,0.70
2017-11-27T06:47:28.693Z,0.70
2017-11-27T06:49:56.789Z,0.70
2017-11-27T06:52:24.917Z,0.70
2017-11-27T06:54:53.800Z,0.70
2017-11-27T06:57:22.714Z,0.70
2017-11-27T06:59:51.577Z,0.70
2017-11-27T07:02:19.700Z,0.70
2017-11-27T07:04:47.814Z,0.70
2017-11-27T07:07:15.944Z,0.70
2017-11-27T07:09:44.062Z,0.80
2017-11-27T07:12:12.190Z,0.80
2017-11-27T07:14:40.308Z,0.90
2017-11-27T07:17:08.434Z,0.90
2017-11-27T07:19:36.550Z,1.00
2017-11-27T07:22:05.089Z,1.10
2017-11-27T07:24:33.196Z,1.10
2017-11-27T07:27:01.308Z,1.20
2017-11-27T07:29:30.199Z,1.40
2017-11-27T07:31:59.074Z,1.50
2017-11-27T07:34:27.979Z,1.50
2017-11-27T07:36:56.895Z,1.60
2017-11-27T07:39:31.476Z,1.60
2017-11-27T07:41:59.596Z,1.60
2017-11-27T07:44:27.717Z,1.60
2017-11-27T07:46:55.837Z,1.60
2017-11-27T07:49:23.997Z,1.60
2017-11-27T07:51:52.877Z,1.60
2017-11-27T07:54:21.770Z,1.60
2017-11-27T07:56:50.653Z,1.50
2017-11-27T07:59:20.044Z,1.50
2017-11-27T08:01:48.229Z,1.50
2017-11-27T08:04:16.370Z,1.40
2017-11-27T08:06:44.473Z,1.30
2017-11-27T08:09:12.586Z,1.30
2017-11-27T08:11:40.711Z,1.30
2017-11-27T08:14:08.924Z,1.30
2017-11-27T08:16:37.794Z,1.30
2017-11-27T08:19:06.696Z,1.30
2017-11-27T08:21:35.596Z,1.40
2017-11-27T08:24:04.484Z,1.40
2017-11-27T08:26:33.374Z,1.50
2017-11-27T08:29:02.265Z,1.50
2017-11-27T08:31:31.159Z,1.60
2017-11-27T08:33:59.276Z,1.60
2017-11-27T08:36:28.251Z,1.80
2017-11-27T08:38:56.368Z,1.80
2017-11-27T08:41:24.487Z,1.90
2017-11-27T08:43:52.628Z,1.90
2017-11-27T08:46:21.527Z,2.00
2017-11-27T08:48:49.660Z,2.00
2017-11-27T08:51:17.780Z,2.10
2017-11-27T08:53:45.908Z,2.10
2017-11-27T08:56:14.041Z,2.20
2017-11-27T08:58:42.159Z,2.20
2017-11-27T09:01:10.275Z,2.30
2017-11-27T09:03:38.388Z,2.40
2017-11-27T09:06:06.523Z,2.40
2017-11-27T09:08:34.632Z,2.50
2017-11-27T09:11:02.937Z,2.50
2017-11-27T09:13:31.815Z,2.50
2017-11-27T09:15:59.947Z,2.50
2017-11-27T09:18:28.089Z,2.60
2017-11-27T09:20:56.969Z,2.60
2017-11-27T09:23:25.871Z,2.60
2017-11-27T09:25:53.988Z,2.60
2017-11-27T09:28:22.123Z,2.60
2017-11-27T09:30:50.996Z,2.70
2017-11-27T09:33:19.896Z,2.70
2017-11-27T09:35:48.905Z,2.80
2017-11-27T09:38:17.799Z,2.90
2017-11-27T09:40:45.915Z,2.90
2017-11-27T09:43:14.039Z,3.10
2017-11-27T09:45:42.168Z,3.10
2017-11-27T09:48:10.511Z,3.10
2017-11-27T09:50:38.607Z,3.10
2017-11-27T09:53:06.731Z,3.10
2017-11-27T09:55:34.864Z,3.10
2017-11-27T09:58:02.983Z,3.20
2017-11-27T10:00:31.130Z,3.30
2017-11-27T10:03:00.014Z,3.50
2017-11-27T10:05:28.176Z,3.40
2017-11-27T10:07:56.749Z,3.50
2017-11-27T10:10:24.856Z,3.70
2017-11-27T10:12:53.749Z,3.90
2017-11-27T10:15:21.877Z,3.90
2017-11-27T10:17:50.023Z,3.90
2017-11-27T10:20:18.899Z,3.70
2017-11-27T10:22:47.776Z,3.70
2017-11-27T10:25:16.667Z,3.70
2017-11-27T10:27:45.563Z,3.80
2017-11-27T10:30:14.446Z,4.00
2017-11-27T10:32:42.617Z,3.90
2017-11-27T10:35:10.741Z,4.10
2017-11-27T10:37:39.657Z,4.30
2017-11-27T10:40:07.784Z,4.30
2017-11-27T10:42:35.900Z,4.30
2017-11-27T10:45:04.038Z,4.20
2017-11-27T10:47:32.154Z,4.10
2017-11-27T10:50:00.283Z,4.00
2017-11-27T10:52:28.449Z,4.00
2017-11-27T10:54:56.548Z,4.00
2017-11-27T10:57:24.677Z,4.00
2017-11-27T10:59:52.809Z,4.00
2017-11-27T11:02:20.934Z,4.00
2017-11-27T11:04:49.049Z,4.00
2017-11-27T11:07:17.171Z,4.00
2017-11-27T11:09:45.303Z,4.00
2017-11-27T11:12:13.428Z,3.90
2017-11-27T11:14:41.528Z,3.90
2017-11-27T11:17:09.659Z,3.90
2017-11-27T11:19:37.791Z,3.90
2017-11-27T11:22:05.919Z,3.90
2017-11-27T11:24:34.110Z,3.90
2017-11-27T11:27:02.254Z,3.90
2017-11-27T11:29:30.378Z,3.90
2017-11-27T11:31:58.508Z,3.90
2017-11-27T11:34:26.632Z,3.90
2017-11-27T11:36:54.775Z,3.90
2017-11-27T11:39:22.913Z,3.90
2017-11-27T11:41:51.808Z,3.80
2017-11-27T11:44:20.718Z,3.90
2017-11-27T11:46:50.633Z,3.80
2017-11-27T11:49:18.758Z,3.90
2017-11-27T11:51:47.650Z,4.00
2017-11-27T11:54:16.588Z,4.00
2017-11-27T11:56:45.486Z,4.00
2017-11-27T11:59:13.606Z,4.00
2017-11-27T12:01:42.527Z,4.10
2017-11-27T12:04:11.421Z,4.20
2017-11-27T12:06:39.532Z,4.20
2017-11-27T12:09:07.667Z,4.30
2017-11-27T12:11:35.804Z,4.50
2017-11-27T12:14:03.937Z,4.60
2017-11-27T12:16:32.061Z,4.70
2017-11-27T12:19:00.992Z,5.10
2017-11-27T12:21:29.100Z,5.10
2017-11-27T12:23:57.246Z,5.40
2017-11-27T12:26:25.379Z,5.50
2017-11-27T12:28:53.474Z,5.50
2017-11-27T12:31:21.618Z,5.50
2017-11-27T12:33:50.654Z,5.60
2017-11-27T12:36:18.782Z,5.60
2017-11-27T12:38:47.132Z,6.00
2017-11-27T12:41:15.249Z,6.30
2017-11-27T12:43:44.140Z,6.90
2017-11-27T12:46:13.049Z,7.10
2017-11-27T12:48:41.179Z,7.10
2017-11-27T12:51:09.300Z,7.10
2017-11-27T12:53:37.417Z,7.30
2017-11-27T12:56:05.553Z,7.40
2017-11-27T12:58:33.786Z,7.70
2017-11-27T13:01:02.675Z,7.90
2017-11-27T13:03:31.559Z,8.10
2017-11-27T13:06:00.451Z,8.30
2017-11-27T13:08:29.422Z,8.60
2017-11-27T13:10:57.658Z,8.50
2017-11-27T13:13:25.779Z,8.50
2017-11-27T13:15:53.900Z,8.20
2017-11-27T13:18:22.026Z,8.00
2017-11-27T13:20:50.137Z,7.80
2017-11-27T13:23:18.279Z,7.60
2017-11-27T13:25:46.394Z,7.50
2017-11-27T13:28:14.537Z,7.40
2017-11-27T13:30:43.447Z,7.00
2017-11-27T13:33:12.356Z,6.70
2017-11-27T13:35:40.469Z,6.70
2017-11-27T13:38:08.643Z,6.50
2017-11-27T13:40:36.746Z,6.30
2017-11-27T13:43:05.613Z,6.00
2017-11-27T13:45:33.727Z,6.00
2017-11-27T13:48:01.901Z,5.90
2017-11-27T13:50:30.041Z,5.80
2017-11-27T13:52:58.933Z,5.50
2017-11-27T13:55:27.810Z,5.40
2017-11-27T13:57:55.958Z,5.40
2017-11-27T14:00:24.153Z,5.30
2017-11-27T14:02:52.301Z,5.20
2017-11-27T14:05:20.533Z,5.10
2017-11-27T14:07:49.435Z,5.00
2017-11-27T14:10:17.575Z,5.00
2017-11-27T14:12:45.703Z,5.00
2017-11-27T14:15:13.809Z,4.90
2017-11-27T14:17:41.933Z,4.80
2017-11-27T14:20:10.055Z,4.80
2017-11-27T14:22:38.182Z,4.80
2017-11-27T14:25:06.322Z,4.70
2017-11-27T14:27:35.232Z,4.70
2017-11-27T14:30:03.364Z,4.60
2017-11-27T14:32:31.488Z,4.60
2017-11-27T14:34:59.621Z,4.60
2017-11-27T14:37:28.525Z,4.50
2017-11-27T14:39:57.612Z,4.50
2017-11-27T14:42:26.486Z,4.50
2017-11-27T14:44:54.609Z,4.50
2017-11-27T14:47:22.734Z,4.50
2017-11-27T14:49:51.766Z,4.40
2017-11-27T14:52:20.641Z,4.40
2017-11-27T14:54:48.814Z,4.30
2017-11-27T14:57:17.705Z,4.30
2017-11-27T14:59:46.598Z,4.30
2017-11-27T15:02:14.741Z,4.30
2017-11-27T15:04:42.862Z,4.20
2017-11-27T15:07:10.984Z,4.20
2017-11-27T15:09:39.208Z,4.10
2017-11-27T15:12:08.086Z,4.10
2017-11-27T15:14:36.968Z,4.10
2017-11-27T15:17:05.076Z,4.10
2017-11-27T15:19:33.210Z,4.00
2017-11-27T15:22:02.102Z,3.90
2017-11-27T15:24:30.995Z,3.90
2017-11-27T15:26:59.878Z,3.90
2017-11-27T15:29:31.332Z,3.80
2017-11-27T15:32:00.228Z,3.80
2017-11-27T15:34:29.123Z,3.70
2017-11-27T15:36:57.235Z,3.70
2017-11-27T15:39:25.381Z,3.70
2017-11-27T15:41:53.517Z,3.70
2017-11-27T15:57:33.299Z,3.70
2017-11-27T16:00:01.420Z,3.70
2017-11-27T16:02:30.577Z,3.70
2017-11-27T16:04:58.691Z,3.70
2017-11-27T16:07:26.818Z,3.70
2017-11-27T16:09:54.986Z,3.60
2017-11-27T16:12:23.097Z,3.60
2017-11-27T16:14:51.244Z,3.60
2017-11-27T16:17:19.358Z,3.60
2017-11-27T16:19:47.496Z,3.50
2017-11-27T16:22:15.631Z,3.50
2017-11-27T16:24:44.537Z,3.40
2017-11-27T16:27:12.758Z,3.40
2017-11-27T16:29:40.899Z,3.40
2017-11-27T16:32:09.026Z,3.40
2017-11-27T16:34:37.914Z,3.30
2017-11-27T16:37:06.917Z,3.30
2017-11-27T16:39:35.802Z,3.30
2017-11-27T16:42:03.906Z,3.30
2017-11-27T16:44:32.031Z,3.30
2017-11-27T16:47:00.163Z,3.30
2017-11-27T16:49:28.293Z,3.30
2017-11-27T16:51:57.171Z,3.30
2017-11-27T16:54:25.356Z,3.30
2017-11-27T16:56:53.470Z,3.30
2017-11-27T16:59:21.610Z,3.30
2017-11-27T17:01:50.529Z,3.20
2017-11-27T17:04:19.393Z,3.20
2017-11-27T17:06:48.318Z,3.20
2017-11-27T17:09:16.432Z,3.20
2017-11-27T17:11:44.636Z,3.20
2017-11-27T17:14:13.532Z,3.20
2017-11-27T17:16:42.432Z,3.30
2017-11-27T17:19:10.548Z,3.20
2017-11-27T17:21:38.689Z,3.30
2017-11-27T17:24:06.813Z,3.30
2017-11-27T17:26:34.963Z,3.30
2017-11-27T17:29:03.073Z,3.30
2017-11-27T17:31:31.232Z,3.30
2017-11-27T17:33:59.340Z,3.20
2017-11-27T17:36:28.255Z,3.30
2017-11-27T17:38:56.435Z,3.30
2017-11-27T17:41:25.299Z,3.30
2017-11-27T17:43:54.202Z,3.30
2017-11-27T17:46:22.324Z,3.30
2017-11-27T17:48:50.456Z,3.40
2017-11-27T17:51:18.600Z,3.40
2017-11-27T17:53:47.500Z,3.40
2017-11-27T17:56:16.385Z,3.30
2017-11-27T17:58:45.297Z,3.40
2017-11-27T18:01:13.425Z,3.40
2017-11-27T18:03:41.551Z,3.40
2017-11-27T18:06:09.690Z,3.40
2017-11-27T18:08:38.600Z,3.40
2017-11-27T18:11:12.394Z,3.40
2017-11-27T18:13:41.289Z,3.40
2017-11-27T18:16:09.484Z,3.40
2017-11-27T18:18:37.619Z,3.40
2017-11-27T18:21:06.496Z,3.40
2017-11-27T18:23:34.618Z,3.40
2017-11-27T18:26:02.784Z,3.40
2017-11-27T18:28:31.673Z,3.40
2017-11-27T18:30:59.797Z,3.40
2017-11-27T18:33:28.000Z,3.40
2017-11-27T18:35:56.880Z,3.30
2017-11-27T18:38:25.772Z,3.30
2017-11-27T18:40:54.694Z,3.30
2017-11-27T18:43:23.114Z,3.30
2017-11-27T18:45:51.655Z,3.30
2017-11-27T18:48:19.781Z,3.40
2017-11-27T18:50:49.392Z,3.40
2017-11-27T18:53:18.278Z,3.40
2017-11-27T18:55:47.908Z,3.40
2017-11-27T18:58:16.048Z,3.40
2017-11-27T19:00:44.187Z,3.40
2017-11-27T19:03:12.296Z,3.40
2017-11-27T19:05:40.442Z,3.40
2017-11-27T19:08:08.672Z,3.50
2017-11-27T19:10:37.596Z,3.50
2017-11-27T19:13:05.708Z,3.50
2017-11-27T19:15:33.870Z,3.50
2017-11-27T19:18:02.006Z,3.50
2017-11-27T19:20:30.139Z,3.50
2017-11-27T19:22:59.015Z,3.60
2017-11-27T19:25:27.147Z,3.50
2017-11-27T19:27:55.674Z,3.50
2017-11-27T19:30:24.591Z,3.50
2017-11-27T19:32:53.599Z,3.50
2017-11-27T19:35:21.722Z,3.50
2017-11-27T19:37:50.684Z,3.50
2017-11-27T19:40:18.825Z,3.50
2017-11-27T19:42:46.928Z,3.50
2017-11-27T19:45:15.073Z,3.50
2017-11-27T19:47:43.194Z,3.50
2017-11-27T19:50:11.362Z,3.50
2017-11-27T19:52:39.470Z,3.50
2017-11-27T19:55:08.397Z,3.40
2017-11-27T19:57:36.515Z,3.40
2017-11-27T20:00:04.664Z,3.40
2017-11-27T20:02:32.797Z,3.40
2017-11-27T20:05:00.950Z,3.40
2017-11-27T20:07:29.836Z,3.40
2017-11-27T20:09:58.766Z,3.40
2017-11-27T20:12:26.903Z,3.40
2017-11-27T20:14:55.105Z,3.50
2017-11-27T20:17:23.542Z,3.50
2017-11-27T20:19:52.437Z,3.60
2017-11-27T20:22:20.652Z,3.50
2017-11-27T20:24:49.040Z,3.60
2017-11-27T20:27:17.177Z,3.60
2017-11-27T20:29:46.051Z,3.70
2017-11-27T20:32:14.235Z,3.60
2017-11-27T20:34:44.903Z,3.70
2017-11-27T20:37:13.068Z,3.70
2017-11-27T20:39:41.211Z,3.70
2017-11-27T20:42:09.361Z,3.70
2017-11-27T20:44:38.303Z,3.80
2017-11-27T20:47:07.233Z,3.80
2017-11-27T20:49:35.404Z,3.80
2017-11-27T20:52:03.562Z,3.90
2017-11-27T20:54:31.738Z,3.90
2017-11-27T20:56:59.890Z,3.90
2017-11-27T20:59:28.135Z,3.90
2017-11-27T21:01:56.312Z,3.90
2017-11-27T21:04:24.681Z,4.00
2017-11-27T21:06:53.616Z,3.90
2017-11-27T21:09:21.749Z,3.90
2017-11-27T21:11:50.880Z,3.90
2017-11-27T21:14:19.061Z,3.90
2017-11-27T21:16:47.209Z,4.00
2017-11-27T21:19:16.087Z,4.00
2017-11-27T21:21:45.002Z,4.00
2017-11-27T21:24:13.153Z,4.00
2017-11-27T21:26:42.072Z,4.00
2017-11-27T21:29:10.172Z,4.00
2017-11-27T21:31:38.517Z,4.00
2017-11-27T21:34:06.620Z,4.00
2017-11-27T21:36:34.766Z,4.00
2017-11-27T21:39:02.894Z,4.00
2017-11-27T21:41:31.804Z,4.00
2017-11-27T21:44:00.385Z,4.00
2017-11-27T21:46:29.303Z,4.00
2017-11-27T21:48:57.448Z,4.00
2017-11-27T21:51:26.325Z,4.00
2017-11-27T21:53:55.250Z,4.10
2017-11-27T21:56:23.363Z,4.10
2017-11-27T21:58:51.533Z,4.10
2017-11-27T22:01:19.652Z,4.10
2017-11-27T22:03:48.549Z,4.10
2017-11-27T22:06:16.834Z,4.10
2017-11-27T22:08:45.701Z,4.10
2017-11-27T22:11:14.636Z,4.20
2017-11-27T22:13:42.796Z,4.10
2017-11-27T22:16:11.653Z,4.20
2017-11-27T22:18:40.549Z,4.20
2017-11-27T22:21:09.464Z,4.20
2017-11-27T22:23:37.598Z,4.20
2017-11-27T22:26:06.898Z,4.20
2017-11-27T22:28:35.009Z,4.20
2017-11-27T22:31:03.138Z,4.20
2017-11-27T22:33:32.042Z,4.30
2017-11-27T22:36:00.928Z,4.30
2017-11-27T22:38:29.810Z,4.30
2017-11-27T22:40:58.696Z,4.30
2017-11-27T22:43:26.821Z,4.30
2017-11-27T22:45:54.947Z,4.30
2017-11-27T22:48:23.061Z,4.30
2017-11-27T22:50:51.181Z,4.30
2017-11-27T22:53:19.306Z,4.40
2017-11-27T22:55:47.424Z,4.40
2017-11-27T22:58:15.549Z,4.40
2017-11-27T23:00:43.707Z,4.40
2017-11-27T23:03:11.833Z,4.40
2017-11-27T23:05:39.941Z,4.40
2017-11-27T23:08:08.098Z,4.50
2017-11-27T23:10:36.982Z,4.50
2017-11-27T23:13:05.879Z,4.50
2017-11-27T23:15:34.761Z,4.50
2017-11-27T23:18:02.887Z,4.50
2017-11-27T23:20:31.002Z,4.60
2017-11-27T23:22:59.900Z,4.50
2017-11-27T23:25:28.796Z,4.50
2017-11-27T23:27:57.686Z,4.50
2017-11-27T23:30:26.567Z,4.60
2017-11-27T23:32:55.459Z,4.60
2017-11-27T23:35:23.573Z,4.60
2017-11-27T23:37:51.679Z,4.60
2017-11-27T23:40:19.914Z,4.60
2017-11-27T23:42:48.016Z,4.60
2017-11-27T23:45:16.161Z,4.60
2017-11-27T23:47:44.277Z,4.60
2017-11-27T23:50:12.411Z,4.60
2017-11-27T23:52:40.521Z,4.60
2017-11-27T23:55:08.671Z,4.60
2017-11-27T23:57:36.916Z,4.60
